createdAt,value
2023-02-03T00:03:58.738Z,213574.00
2023-02-03T00:10:01.304Z,213574.00
2023-02-03T00:16:03.769Z,213574.00
2023-02-03T00:22:06.022Z,213554.00
2023-02-03T00:28:08.198Z,213518.00
2023-02-03T00:34:10.932Z,213512.00
2023-02-03T00:40:15.278Z,213520.00
2023-02-03T00:46:17.557Z,213512.00
2023-02-03T00:52:19.819Z,213518.00
2023-02-03T00:58:22.018Z,213428.00
2023-02-03T01:04:24.469Z,213394.00
2023-02-03T01:10:26.758Z,213394.00
2023-02-03T01:16:31.221Z,213434.00
2023-02-03T01:22:33.372Z,213428.00
2023-02-03T01:28:36.190Z,213380.00
2023-02-03T01:34:38.533Z,213388.00
2023-02-03T01:40:45.110Z,213400.00
2023-02-03T01:46:51.300Z,213394.00
2023-02-03T01:52:58.608Z,213388.00
2023-02-03T01:59:01.267Z,213366.00
2023-02-03T02:05:21.832Z,213273.00
2023-02-03T02:11:24.393Z,213195.00
2023-02-03T02:17:44.841Z,213155.00
2023-02-03T02:24:04.301Z,213115.00
2023-02-03T02:30:12.534Z,213076.00
2023-02-03T02:36:18.675Z,213129.00
2023-02-03T02:42:39.078Z,213209.00
2023-02-03T02:48:54.945Z,213287.00
2023-02-03T02:55:02.932Z,213341.00
2023-02-03T03:01:09.280Z,213380.00
2023-02-03T03:07:24.497Z,213414.00
2023-02-03T03:13:34.624Z,213414.00
2023-02-03T03:19:41.586Z,213420.00
2023-02-03T03:25:49.617Z,213486.00
2023-02-03T03:31:51.847Z,213498.00
2023-02-03T03:38:00.765Z,213546.00
2023-02-03T03:44:06.273Z,213580.00
2023-02-03T03:50:14.819Z,213627.00
2023-02-03T03:56:25.037Z,213667.00
2023-02-03T04:02:28.640Z,213713.00
2023-02-03T04:08:30.755Z,213759.00
2023-02-03T04:14:38.229Z,213787.00
2023-02-03T04:20:40.748Z,213845.00
2023-02-03T04:26:42.850Z,213914.00
2023-02-03T04:32:46.466Z,213920.00
2023-02-03T04:38:52.246Z,213962.00
2023-02-03T04:44:54.480Z,214018.00
2023-02-03T04:51:01.075Z,214024.00
2023-02-03T04:57:03.728Z,214080.00
2023-02-03T05:03:06.036Z,214066.00
2023-02-03T05:09:08.424Z,214046.00
2023-02-03T05:15:10.869Z,214066.00
2023-02-03T05:21:13.088Z,214024.00
2023-02-03T05:27:15.549Z,213974.00
2023-02-03T05:33:17.583Z,213946.00
2023-02-03T05:39:19.908Z,213900.00
2023-02-03T05:45:22.151Z,213887.00
2023-02-03T05:51:25.460Z,213853.00
2023-02-03T05:57:27.893Z,213887.00
2023-02-03T06:03:30.186Z,213920.00
2023-02-03T06:09:32.516Z,213940.00
2023-02-03T06:15:35.264Z,214052.00
2023-02-03T06:21:37.627Z,214092.00
2023-02-03T06:27:39.824Z,214260.00
2023-02-03T06:33:42.138Z,214381.00
2023-02-03T06:39:44.929Z,214428.00
2023-02-03T06:45:47.745Z,214508.00
2023-02-03T06:51:50.410Z,214582.00
2023-02-03T06:57:52.655Z,214815.00
2023-02-03T07:03:58.052Z,215098.00
2023-02-03T07:10:01.449Z,215263.00
2023-02-03T07:16:03.753Z,215451.00
2023-02-03T07:22:06.187Z,215565.00
2023-02-03T07:28:08.770Z,215632.00
2023-02-03T07:34:10.965Z,215828.00
2023-02-03T07:40:14.385Z,212011.00
2023-02-03T07:46:17.046Z,215957.00
2023-02-03T07:52:21.759Z,216032.00
2023-02-03T07:58:24.162Z,212421.00
2023-02-03T08:04:30.018Z,212680.00
2023-02-03T08:10:32.039Z,212460.00
2023-02-03T08:16:34.766Z,212666.00
2023-02-03T08:22:36.734Z,213067.00
2023-02-03T08:28:38.952Z,213728.00
2023-02-03T08:34:41.297Z,213473.00
2023-02-03T08:40:43.860Z,213322.00
2023-02-03T08:46:49.818Z,213404.00
2023-02-03T08:52:52.317Z,213262.00
2023-02-03T08:58:55.982Z,213830.00
2023-02-03T09:04:58.517Z,214779.00
2023-02-03T09:11:00.978Z,214897.00
2023-02-03T09:17:04.897Z,215024.00
2023-02-03T09:23:07.205Z,214640.00
2023-02-03T09:29:09.821Z,214648.00
2023-02-03T09:35:12.197Z,214515.00
2023-02-03T09:41:34.515Z,214296.00
2023-02-03T09:47:43.900Z,214155.00
2023-02-03T09:53:51.814Z,214003.00
2023-02-03T09:59:56.904Z,213803.00
2023-02-03T10:06:14.341Z,213811.00
2023-02-03T10:12:45.473Z,213686.00
2023-02-03T10:18:54.964Z,213501.00
2023-02-03T10:24:57.369Z,213398.00
2023-02-03T10:31:02.003Z,213384.00
2023-02-03T10:37:23.121Z,213419.00
2023-02-03T10:43:44.316Z,213645.00
2023-02-03T10:49:47.211Z,213776.00
2023-02-03T10:56:03.036Z,213830.00
2023-02-03T11:02:10.610Z,213645.00
2023-02-03T11:08:16.630Z,213844.00
2023-02-03T11:14:19.357Z,213983.00
2023-02-03T11:20:22.601Z,214197.00
2023-02-03T11:26:44.018Z,214363.00
2023-02-03T11:32:48.138Z,214424.00
2023-02-03T11:38:50.613Z,214648.00
2023-02-03T11:45:08.232Z,214925.00
2023-02-03T11:51:22.653Z,215253.00
2023-02-03T11:57:51.451Z,216035.00
2023-02-03T12:04:18.472Z,219867.00
2023-02-03T12:10:30.913Z,220691.00
2023-02-03T12:16:56.276Z,221500.00
2023-02-03T12:23:23.717Z,220639.00
2023-02-03T12:29:39.058Z,218882.00
2023-02-03T12:35:56.319Z,217897.00
2023-02-03T12:42:05.117Z,218466.00
2023-02-03T12:48:16.962Z,216816.00
2023-02-03T12:54:34.002Z,217724.00
2023-02-03T13:00:41.972Z,215799.00
2023-02-03T13:07:02.750Z,215295.00
2023-02-03T13:13:07.942Z,215154.00
2023-02-03T13:19:21.589Z,213969.00
2023-02-03T13:25:26.359Z,213914.00
2023-02-03T13:31:43.605Z,213748.00
2023-02-03T13:37:59.309Z,213694.00
2023-02-03T13:44:02.259Z,213547.00
2023-02-03T13:50:36.886Z,213495.00
2023-02-03T13:56:39.860Z,213439.00
2023-02-03T14:02:53.874Z,213398.00
2023-02-03T14:09:00.160Z,213272.00
2023-02-03T14:15:18.034Z,213184.00
2023-02-03T14:21:23.884Z,213011.00
2023-02-03T14:27:28.888Z,212856.00
2023-02-03T14:33:49.045Z,212794.00
2023-02-03T14:40:22.515Z,212714.00
2023-02-03T14:46:59.432Z,212616.00
2023-02-03T14:53:13.291Z,212521.00
2023-02-03T14:59:16.010Z,212447.00
2023-02-03T15:05:18.656Z,212379.00
2023-02-03T15:11:29.882Z,212262.00
2023-02-03T15:17:32.015Z,212215.00
2023-02-03T15:23:43.486Z,212134.00
2023-02-03T15:29:45.801Z,212100.00
2023-02-03T15:35:55.875Z,212045.00
2023-02-03T15:41:59.709Z,211983.00
2023-02-03T15:48:01.995Z,216020.00
2023-02-03T15:54:30.710Z,215864.00
2023-02-03T16:00:39.421Z,215775.00
2023-02-03T16:06:45.407Z,215680.00
2023-02-03T16:12:47.601Z,215624.00
2023-02-03T16:18:56.414Z,215612.00
2023-02-03T16:25:12.836Z,215612.00
2023-02-03T16:31:39.579Z,215632.00
2023-02-03T16:38:04.089Z,215612.00
2023-02-03T16:44:24.920Z,215599.00
2023-02-03T16:50:46.788Z,215518.00
2023-02-03T16:56:49.777Z,215465.00
2023-02-03T17:02:52.275Z,215417.00
2023-02-03T17:08:56.644Z,215389.00
2023-02-03T17:15:00.378Z,215369.00
2023-02-03T17:21:08.270Z,215336.00
2023-02-03T17:27:10.522Z,215300.00
2023-02-03T17:33:12.957Z,215213.00
2023-02-03T17:58:04.308Z,214863.00
2023-02-03T18:04:09.033Z,214804.00
2023-02-03T18:10:11.784Z,214743.00
2023-02-03T18:16:18.156Z,214729.00
2023-02-03T18:22:21.421Z,214703.00
2023-02-03T18:28:24.071Z,214664.00
2023-02-03T18:34:26.258Z,214664.00
2023-02-03T18:40:28.534Z,214642.00
2023-02-03T18:46:32.845Z,214602.00
2023-02-03T18:52:35.283Z,214554.00
2023-02-03T18:58:38.273Z,214508.00
2023-02-03T19:04:40.734Z,214460.00
2023-02-03T19:10:42.840Z,214415.00
2023-02-03T19:16:45.015Z,214353.00
2023-02-03T19:22:47.184Z,214367.00
2023-02-03T19:28:49.518Z,214381.00
2023-02-03T19:34:51.750Z,214375.00
2023-02-03T19:40:54.029Z,214341.00
2023-02-03T19:46:56.171Z,214321.00
2023-02-03T19:52:58.269Z,214301.00
2023-02-03T19:59:00.640Z,214287.00
2023-02-03T20:05:02.850Z,214287.00
2023-02-03T20:11:05.641Z,214301.00
2023-02-03T20:17:08.149Z,214266.00
2023-02-03T20:23:10.264Z,214247.00
2023-02-03T20:29:12.547Z,214221.00
2023-02-03T20:35:15.118Z,214241.00
2023-02-03T20:41:18.108Z,214266.00
2023-02-03T20:47:22.935Z,214274.00
2023-02-03T20:53:26.635Z,214266.00
2023-02-03T20:59:29.557Z,214266.00
2023-02-03T21:05:42.365Z,214321.00
2023-02-03T21:11:44.449Z,214353.00
2023-02-03T21:17:47.073Z,214333.00
2023-02-03T21:23:49.251Z,214353.00
2023-02-03T21:29:56.001Z,214353.00
2023-02-03T21:35:58.439Z,214293.00
2023-02-03T21:42:19.568Z,214301.00
2023-02-03T21:48:40.658Z,214241.00
2023-02-03T21:54:44.566Z,214241.00
2023-02-03T22:00:50.564Z,214221.00
2023-02-03T22:06:54.638Z,214207.00
2023-02-03T22:12:56.927Z,214167.00
2023-02-03T22:18:59.314Z,214167.00
2023-02-03T22:25:01.648Z,214173.00
2023-02-03T22:31:05.442Z,214159.00
2023-02-03T22:37:07.737Z,214128.00
2023-02-03T22:43:10.070Z,214092.00
2023-02-03T22:49:12.378Z,214120.00
2023-02-03T22:55:14.702Z,214128.00
2023-02-03T23:01:17.000Z,214100.00
2023-02-03T23:07:19.552Z,214148.00
2023-02-03T23:13:22.041Z,214106.00
2023-02-03T23:19:25.199Z,214106.00
2023-02-03T23:25:27.537Z,214086.00
2023-02-03T23:31:30.186Z,214120.00
2023-02-03T23:37:32.533Z,214100.00
2023-02-03T23:43:34.883Z,214126.00
2023-02-03T23:49:37.232Z,214142.00
2023-02-03T23:55:39.661Z,214134.00
